createdAt,value
2019-04-06T00:00:57.095Z,77.53
2019-04-06T00:01:57.089Z,77.01
2019-04-06T00:02:57.070Z,77.22
2019-04-06T00:03:57.096Z,77.83
2019-04-06T00:04:57.048Z,76.30
2019-04-06T00:05:57.034Z,76.71
2019-04-06T00:06:57.028Z,76.40
2019-04-06T00:07:57.014Z,76.30
2019-04-06T00:08:57.002Z,75.96
2019-04-06T00:09:56.996Z,76.16
2019-04-06T00:10:57.069Z,75.75
2019-04-06T00:11:56.966Z,75.65
2019-04-06T00:12:56.987Z,74.84
2019-04-06T00:13:56.952Z,75.04
2019-04-06T00:14:57.035Z,74.84
2019-04-06T00:15:56.926Z,74.73
2019-04-06T00:16:56.942Z,74.73
2019-04-06T00:17:56.903Z,74.52
2019-04-06T00:18:56.886Z,75.45
2019-04-06T00:19:56.874Z,74.93
2019-04-06T00:20:56.880Z,74.93
2019-04-06T00:21:56.852Z,74.84
2019-04-06T00:22:56.839Z,74.39
2019-04-06T00:23:56.858Z,73.81
2019-04-06T00:24:56.818Z,73.77
2019-04-06T00:25:56.808Z,72.99
2019-04-06T00:26:56.795Z,73.06
2019-04-06T00:27:56.794Z,72.96
2019-04-06T00:28:56.809Z,73.10
2019-04-06T00:29:56.772Z,73.10
2019-04-06T00:30:56.745Z,73.30
2019-04-06T00:31:56.754Z,72.99
2019-04-06T00:32:56.802Z,72.96
2019-04-06T00:33:56.716Z,72.75
2019-04-06T00:34:56.700Z,72.89
2019-04-06T00:35:56.692Z,72.38
2019-04-06T00:36:56.701Z,72.65
2019-04-06T00:37:56.673Z,72.14
2019-04-06T00:38:56.747Z,72.24
2019-04-06T00:39:56.701Z,72.04
2019-04-06T00:40:56.642Z,71.53
2019-04-06T00:41:56.623Z,71.33
2019-04-06T00:42:56.619Z,71.33
2019-04-06T00:43:56.596Z,72.24
2019-04-06T00:44:56.590Z,72.14
2019-04-06T00:45:56.582Z,71.77
2019-04-06T00:46:56.563Z,71.63
2019-04-06T00:47:56.571Z,71.56
2019-04-06T00:48:56.544Z,71.66
2019-04-06T00:49:56.607Z,71.56
2019-04-06T00:50:56.519Z,71.46
2019-04-06T00:51:56.513Z,72.38
2019-04-06T00:52:56.513Z,71.63
2019-04-06T00:53:56.488Z,72.38
2019-04-06T00:54:56.481Z,72.28
2019-04-06T00:55:56.541Z,71.33
2019-04-06T00:56:56.454Z,70.71
2019-04-06T00:57:56.437Z,70.61
2019-04-06T00:58:56.495Z,70.61
2019-04-06T00:59:56.414Z,70.71
2019-04-06T01:00:56.406Z,70.40
2019-04-06T01:01:56.433Z,70.81
2019-04-06T01:02:56.389Z,70.30
2019-04-06T01:03:56.391Z,70.40
2019-04-06T01:04:56.372Z,70.71
2019-04-06T01:05:56.366Z,70.71
2019-04-06T01:06:56.339Z,70.84
2019-04-06T01:07:56.328Z,70.64
2019-04-06T01:08:56.370Z,70.75
2019-04-06T01:09:56.305Z,71.05
2019-04-06T01:10:56.291Z,71.25
2019-04-06T01:11:56.279Z,71.05
2019-04-06T01:12:56.269Z,71.05
2019-04-06T01:13:56.259Z,71.25
2019-04-06T01:14:56.271Z,71.25
2019-04-06T01:15:56.247Z,71.39
2019-04-06T01:16:56.227Z,71.70
2019-04-06T01:17:56.237Z,71.80
2019-04-06T01:18:56.202Z,71.39
2019-04-06T01:19:56.203Z,71.80
2019-04-06T01:20:56.178Z,71.36
2019-04-06T01:21:56.307Z,71.39
2019-04-06T01:22:56.155Z,71.29
2019-04-06T01:23:56.157Z,71.29
2019-04-06T01:24:56.136Z,71.59
2019-04-06T01:26:06.552Z,71.39
2019-04-06T01:26:57.125Z,72.21
2019-04-06T01:27:56.108Z,71.05
2019-04-06T01:28:56.083Z,70.95
2019-04-06T01:29:56.076Z,71.08
2019-04-06T01:30:56.068Z,70.64
2019-04-06T01:31:56.048Z,71.05
2019-04-06T01:32:56.051Z,70.43
2019-04-06T01:33:56.026Z,70.54
2019-04-06T01:34:56.075Z,70.75
2019-04-06T01:35:56.008Z,70.78
2019-04-06T01:36:55.996Z,71.08
2019-04-06T01:37:56.019Z,71.12
2019-04-06T01:38:55.978Z,72.04
2019-04-06T01:39:55.973Z,72.24
2019-04-06T01:40:55.949Z,72.38
2019-04-06T01:41:55.942Z,72.58
2019-04-06T01:42:55.925Z,72.58
2019-04-06T01:43:55.924Z,72.78
2019-04-06T01:44:55.906Z,72.28
2019-04-06T01:45:55.897Z,72.48
2019-04-06T01:46:55.881Z,72.14
2019-04-06T01:47:55.876Z,72.45
2019-04-06T01:48:55.879Z,72.28
2019-04-06T01:49:55.855Z,72.69
2019-04-06T01:50:55.839Z,72.92
2019-04-06T01:51:55.832Z,73.74
2019-04-06T01:52:55.824Z,74.49
2019-04-06T01:53:55.816Z,74.73
2019-04-06T01:54:55.801Z,74.94
2019-04-06T01:55:55.798Z,75.38
2019-04-06T01:56:55.772Z,76.20
2019-04-06T01:57:55.769Z,76.45
2019-04-06T01:58:55.763Z,77.30
2019-04-06T01:59:55.747Z,77.40
2019-04-06T02:00:55.739Z,77.81
2019-04-06T02:01:55.915Z,78.36
2019-04-06T02:02:55.748Z,79.29
2019-04-06T02:03:55.711Z,79.08
2019-04-06T02:04:55.707Z,79.43
2019-04-06T02:05:55.678Z,79.63
2019-04-06T02:06:55.664Z,81.07
2019-04-06T02:07:55.659Z,80.66
2019-04-06T02:08:55.653Z,80.77
2019-04-06T02:09:55.637Z,80.87
2019-04-06T02:10:55.636Z,81.38
2019-04-06T02:11:55.611Z,81.69
2019-04-06T02:12:55.603Z,81.07
2019-04-06T02:13:55.586Z,81.07
2019-04-06T02:14:55.584Z,81.28
2019-04-06T02:15:55.640Z,81.59
2019-04-06T02:16:55.552Z,81.79
2019-04-06T02:17:55.543Z,81.93
2019-04-06T02:18:55.530Z,82.24
2019-04-06T02:19:55.564Z,81.93
2019-04-06T02:20:55.506Z,83.17
2019-04-06T02:21:55.502Z,83.27
2019-04-06T02:22:55.490Z,82.96
2019-04-06T02:23:55.479Z,83.27
2019-04-06T02:24:55.468Z,83.27
2019-04-06T02:25:55.464Z,82.86
2019-04-06T02:26:55.452Z,82.96
2019-04-06T02:27:55.427Z,82.96
2019-04-06T02:28:55.431Z,82.86
2019-04-06T02:29:55.407Z,83.11
2019-04-06T02:30:55.416Z,83.37
2019-04-06T02:31:55.392Z,83.58
2019-04-06T02:32:55.377Z,83.58
2019-04-06T02:33:55.367Z,82.76
2019-04-06T02:34:55.354Z,83.03
2019-04-06T02:35:55.407Z,81.90
2019-04-06T02:36:55.368Z,81.48
2019-04-06T02:37:55.318Z,81.18
2019-04-06T02:38:55.306Z,81.21
2019-04-06T02:39:55.328Z,82.04
2019-04-06T02:40:55.373Z,81.83
2019-04-06T02:41:55.289Z,82.24
2019-04-06T02:42:55.280Z,82.59
2019-04-06T02:43:55.258Z,82.79
2019-04-06T02:44:55.241Z,82.90
2019-04-06T02:45:55.231Z,83.35
2019-04-06T02:46:55.218Z,83.55
2019-04-06T02:47:55.217Z,83.45
2019-04-06T02:48:55.196Z,84.11
2019-04-06T02:49:55.190Z,84.42
2019-04-06T02:50:55.447Z,84.11
2019-04-06T02:51:55.168Z,85.34
2019-04-06T02:52:55.182Z,85.55
2019-04-06T02:53:55.149Z,85.92
2019-04-06T02:54:55.171Z,83.72
2019-04-06T02:55:55.118Z,83.31
2019-04-06T02:56:55.114Z,83.17
2019-04-06T02:57:55.200Z,82.65
2019-04-06T02:58:55.085Z,82.04
2019-04-06T02:59:55.082Z,81.83
2019-04-06T03:00:55.061Z,81.11
2019-04-06T03:01:55.120Z,81.69
2019-04-06T03:02:55.047Z,81.42
2019-04-06T03:03:55.074Z,81.32
2019-04-06T03:04:55.023Z,81.11
2019-04-06T03:05:55.015Z,81.21
2019-04-06T03:06:55.002Z,81.42
2019-04-06T03:07:55.027Z,80.70
2019-04-06T03:08:54.983Z,81.42
2019-04-06T03:09:54.971Z,80.60
2019-04-06T03:10:54.952Z,81.32
2019-04-06T03:11:55.067Z,81.42
2019-04-06T03:12:54.939Z,81.87
2019-04-06T03:13:54.920Z,82.07
2019-04-06T03:14:54.927Z,82.18
2019-04-06T03:15:54.916Z,82.07
2019-04-06T03:16:54.886Z,82.39
2019-04-06T03:17:54.874Z,81.87
2019-04-06T03:18:54.864Z,82.32
2019-04-06T03:19:54.860Z,82.28
2019-04-06T03:20:54.844Z,83.04
2019-04-06T03:21:54.834Z,82.93
2019-04-06T03:22:54.821Z,82.83
2019-04-06T03:23:54.820Z,83.14
2019-04-06T03:24:54.812Z,83.25
2019-04-06T03:25:54.801Z,83.25
2019-04-06T03:27:01.775Z,83.55
2019-04-06T03:27:55.769Z,83.86
2019-04-06T03:28:54.755Z,84.27
2019-04-06T03:29:58.522Z,84.17
2019-04-06T03:30:54.839Z,84.17
2019-04-06T03:31:54.761Z,83.72
2019-04-06T03:32:54.716Z,83.76
2019-04-06T03:33:54.727Z,82.83
2019-04-06T03:34:54.697Z,83.65
2019-04-06T03:35:54.696Z,83.55
2019-04-06T03:36:54.670Z,84.07
2019-04-06T03:37:54.655Z,83.83
2019-04-06T03:38:54.698Z,83.45
2019-04-06T03:39:54.636Z,83.14
2019-04-06T03:40:54.646Z,82.90
2019-04-06T03:41:54.613Z,83.04
2019-04-06T03:42:54.603Z,83.55
2019-04-06T03:43:54.590Z,83.55
2019-04-06T03:44:54.577Z,82.93
2019-04-06T03:45:54.627Z,83.35
2019-04-06T03:46:54.579Z,83.14
2019-04-06T03:47:54.767Z,83.35
2019-04-06T03:48:54.541Z,83.45
2019-04-06T03:49:54.532Z,82.90
2019-04-06T03:50:54.514Z,83.14
2019-04-06T03:51:54.514Z,83.04
2019-04-06T03:52:54.486Z,83.76
2019-04-06T03:53:54.475Z,83.35
2019-04-06T03:54:54.487Z,83.25
2019-04-06T03:55:54.457Z,82.93
2019-04-06T03:56:54.472Z,82.93
2019-04-06T03:57:54.435Z,82.63
2019-04-06T03:58:54.424Z,82.83
2019-04-06T03:59:54.409Z,83.35
2019-04-06T04:00:54.481Z,83.04
2019-04-06T04:01:54.396Z,83.49
2019-04-06T04:02:54.388Z,83.25
2019-04-06T04:03:54.600Z,83.80
2019-04-06T04:04:54.359Z,84.11
2019-04-06T04:05:54.355Z,84.17
2019-04-06T04:06:54.336Z,84.17
2019-04-06T04:07:54.406Z,83.86
2019-04-06T04:08:54.309Z,83.97
2019-04-06T04:09:54.306Z,84.07
2019-04-06T04:10:54.292Z,83.65
2019-04-06T04:11:54.284Z,83.35
2019-04-06T04:12:54.335Z,83.31
2019-04-06T04:13:54.257Z,83.65
2019-04-06T04:14:54.253Z,83.51
2019-04-06T04:15:56.766Z,83.83
2019-04-06T04:16:54.228Z,83.92
2019-04-06T04:17:54.229Z,83.14
2019-04-06T04:18:54.262Z,83.41
2019-04-06T04:19:54.290Z,82.90
2019-04-06T04:20:54.183Z,82.04
2019-04-06T04:21:54.169Z,81.62
2019-04-06T04:22:54.257Z,82.24
2019-04-06T04:23:54.161Z,81.83
2019-04-06T04:24:54.134Z,81.52
2019-04-06T04:25:54.286Z,81.52
2019-04-06T04:26:54.118Z,81.73
2019-04-06T04:27:54.136Z,81.21
2019-04-06T04:28:54.126Z,80.87
2019-04-06T04:29:54.080Z,80.77
2019-04-06T04:30:54.205Z,80.66
2019-04-06T04:31:54.055Z,80.66
2019-04-06T04:32:54.053Z,80.66
2019-04-06T04:33:54.032Z,80.87
2019-04-06T04:34:54.032Z,80.63
2019-04-06T04:35:54.013Z,79.91
2019-04-06T04:36:54.008Z,79.80
2019-04-06T04:37:54.030Z,80.01
2019-04-06T04:38:54.024Z,79.94
2019-04-06T04:39:53.976Z,79.63
2019-04-06T04:40:53.999Z,80.01
2019-04-06T04:41:53.947Z,80.32
2019-04-06T04:42:53.934Z,79.94
2019-04-06T04:43:53.975Z,79.84
2019-04-06T04:44:53.916Z,79.84
2019-04-06T04:45:53.943Z,80.01
2019-04-06T04:46:53.906Z,79.91
2019-04-06T04:47:53.881Z,79.84
2019-04-06T04:48:53.972Z,79.70
2019-04-06T04:49:53.861Z,79.70
2019-04-06T04:50:53.850Z,79.60
2019-04-06T04:51:53.850Z,79.39
2019-04-06T04:52:53.819Z,79.60
2019-04-06T04:53:53.852Z,79.39
2019-04-06T04:54:53.804Z,79.49
2019-04-06T04:55:53.811Z,79.60
2019-04-06T04:56:53.778Z,79.60
2019-04-06T04:57:53.764Z,79.60
2019-04-06T04:58:53.755Z,79.49
2019-04-06T04:59:53.749Z,79.49
2019-04-06T05:00:53.736Z,79.39
2019-04-06T05:01:53.750Z,78.67
2019-04-06T05:02:53.715Z,78.98
2019-04-06T05:03:53.703Z,78.94
2019-04-06T05:04:53.692Z,78.78
2019-04-06T05:05:53.674Z,78.98
2019-04-06T05:06:53.678Z,78.88
2019-04-06T05:07:53.812Z,79.08
2019-04-06T05:08:53.683Z,78.98
2019-04-06T05:09:53.637Z,79.05
2019-04-06T05:10:53.619Z,78.74
2019-04-06T05:11:53.901Z,78.39
2019-04-06T05:12:53.636Z,77.88
2019-04-06T05:13:53.587Z,77.84
2019-04-06T05:14:53.580Z,76.78
2019-04-06T05:15:53.624Z,76.44
2019-04-06T05:16:53.561Z,75.18
2019-04-06T05:17:53.583Z,74.77
2019-04-06T05:18:53.539Z,74.73
2019-04-06T05:19:53.524Z,73.57
2019-04-06T05:20:53.518Z,72.34
2019-04-06T05:21:53.507Z,72.34
2019-04-06T05:22:53.602Z,72.00
2019-04-06T05:23:53.480Z,71.70
2019-04-06T05:24:53.467Z,70.78
2019-04-06T05:25:53.458Z,70.43
2019-04-06T05:26:53.693Z,70.54
2019-04-06T05:27:53.504Z,69.79
2019-04-06T05:28:53.426Z,69.89
2019-04-06T05:29:53.412Z,69.48
2019-04-06T05:30:53.401Z,69.65
2019-04-06T05:31:53.399Z,68.63
2019-04-06T05:32:53.379Z,68.74
2019-04-06T05:33:53.374Z,67.79
2019-04-06T05:34:53.394Z,67.38
2019-04-06T05:35:53.345Z,67.48
2019-04-06T05:36:53.331Z,67.38
2019-04-06T05:37:53.397Z,67.38
2019-04-06T05:38:53.323Z,67.24
2019-04-06T05:39:53.327Z,66.94
2019-04-06T05:40:53.290Z,67.24
2019-04-06T05:41:53.278Z,66.53
2019-04-06T05:42:53.275Z,66.09
2019-04-06T05:43:53.265Z,65.99
2019-04-06T05:44:53.246Z,65.89
2019-04-06T05:45:53.229Z,65.58
2019-04-06T05:46:53.226Z,66.06
2019-04-06T05:47:53.205Z,65.65
2019-04-06T05:48:53.229Z,65.11
2019-04-06T05:49:53.189Z,63.79
2019-04-06T05:50:53.179Z,64.60
2019-04-06T05:51:53.161Z,64.70
2019-04-06T05:52:53.167Z,64.09
2019-04-06T05:53:53.144Z,63.28
2019-04-06T05:54:53.155Z,63.45
2019-04-06T05:55:53.133Z,63.65
2019-04-06T05:56:53.108Z,63.24
2019-04-06T05:58:02.804Z,64.26
2019-04-06T05:58:54.086Z,63.76
2019-04-06T05:59:53.075Z,63.15
2019-04-06T06:00:53.073Z,63.24
2019-04-06T06:01:53.060Z,62.81
2019-04-06T06:02:53.037Z,63.22
2019-04-06T06:03:53.126Z,62.40
2019-04-06T06:04:53.017Z,62.92
2019-04-06T06:05:53.033Z,62.78
2019-04-06T06:06:53.009Z,61.66
2019-04-06T06:07:52.985Z,61.76
2019-04-06T06:08:53.057Z,61.90
2019-04-06T06:09:52.964Z,62.07
2019-04-06T06:10:52.953Z,62.51
2019-04-06T06:11:55.407Z,61.15
2019-04-06T06:12:52.925Z,61.36
2019-04-06T06:13:52.913Z,61.15
2019-04-06T06:14:52.911Z,60.82
2019-04-06T06:15:53.058Z,60.00
2019-04-06T06:16:52.894Z,61.02
2019-04-06T06:17:52.896Z,60.38
2019-04-06T06:18:52.861Z,60.18
2019-04-06T06:19:52.854Z,59.16
2019-04-06T06:20:52.844Z,59.64
2019-04-06T06:21:52.911Z,60.15
2019-04-06T06:22:52.829Z,59.41
2019-04-06T06:23:52.804Z,58.80
2019-04-06T06:24:52.863Z,57.99
2019-04-06T06:25:52.786Z,58.53
2019-04-06T06:26:52.812Z,58.73
2019-04-06T06:27:52.770Z,58.50
2019-04-06T06:28:52.767Z,58.94
2019-04-06T06:29:52.748Z,58.37
2019-04-06T06:30:52.725Z,58.58
2019-04-06T06:31:52.715Z,57.68
2019-04-06T06:32:52.739Z,57.66
2019-04-06T06:33:52.697Z,57.84
2019-04-06T06:34:52.690Z,57.46
2019-04-06T06:35:52.673Z,58.27
2019-04-06T06:36:52.658Z,56.99
2019-04-06T06:37:52.657Z,57.10
2019-04-06T06:38:52.650Z,55.85
2019-04-06T06:39:52.637Z,56.09
2019-04-06T06:40:52.619Z,56.57
2019-04-06T06:41:52.606Z,55.50
2019-04-06T06:42:52.642Z,54.99
2019-04-06T06:43:52.584Z,54.79
2019-04-06T06:44:52.577Z,55.30
2019-04-06T06:45:52.555Z,55.17
2019-04-06T06:46:52.546Z,54.26
2019-04-06T06:47:52.548Z,53.65
2019-04-06T06:48:52.526Z,54.56
2019-04-06T06:49:52.533Z,54.16
2019-04-06T06:50:52.511Z,53.85
2019-04-06T06:51:52.496Z,53.88
2019-04-06T06:52:52.568Z,55.12
2019-04-06T06:53:52.472Z,54.89
2019-04-06T06:54:52.462Z,54.16
2019-04-06T06:55:53.488Z,54.03
2019-04-06T06:56:52.461Z,52.41
2019-04-06T06:57:52.462Z,53.63
2019-04-06T06:58:52.418Z,52.48
2019-04-06T06:59:52.400Z,53.09
2019-04-06T07:00:52.387Z,53.07
2019-04-06T07:01:52.385Z,51.43
2019-04-06T07:02:52.380Z,52.36
2019-04-06T07:03:52.363Z,52.67
2019-04-06T07:04:52.375Z,52.67
2019-04-06T07:05:52.351Z,51.93
2019-04-06T07:06:52.323Z,51.78
2019-04-06T07:07:52.316Z,50.67
2019-04-06T07:08:52.433Z,50.35
2019-04-06T07:09:52.290Z,49.41
2019-04-06T07:10:52.291Z,49.54
2019-04-06T07:11:52.271Z,50.19
2019-04-06T07:12:52.257Z,50.52
2019-04-06T07:13:52.449Z,51.37
2019-04-06T07:14:52.232Z,51.81
2019-04-06T07:15:52.232Z,52.23
2019-04-06T07:16:52.279Z,53.34
2019-04-06T07:17:52.204Z,53.98
2019-04-06T07:18:52.191Z,53.55
2019-04-06T07:19:52.189Z,52.41
2019-04-06T07:20:52.175Z,51.98
2019-04-06T07:21:52.209Z,52.01
2019-04-06T07:22:52.145Z,52.08
2019-04-06T07:23:52.138Z,52.36
2019-04-06T07:24:52.133Z,51.65
2019-04-06T07:25:58.752Z,50.95
2019-04-06T07:26:53.178Z,51.25
2019-04-06T07:27:52.327Z,50.46
2019-04-06T07:28:52.077Z,52.61
2019-04-06T07:29:52.068Z,51.96
2019-04-06T07:30:52.064Z,50.62
2019-04-06T07:31:52.045Z,50.59
2019-04-06T07:32:52.036Z,50.57
2019-04-06T07:33:52.019Z,50.07
2019-04-06T07:34:52.006Z,49.56
2019-04-06T07:35:52.016Z,49.69
2019-04-06T07:36:52.198Z,50.12
2019-04-06T07:37:52.054Z,50.34
2019-04-06T07:38:51.980Z,51.48
2019-04-06T07:39:52.177Z,51.78
2019-04-06T07:40:51.953Z,50.82
2019-04-06T07:41:51.932Z,49.99
2019-04-06T07:42:52.084Z,49.58
2019-04-06T07:43:51.907Z,50.92
2019-04-06T07:44:52.052Z,50.90
2019-04-06T07:45:52.069Z,50.27
2019-04-06T07:46:51.963Z,48.21
2019-04-06T07:47:51.866Z,48.55
2019-04-06T07:48:51.860Z,50.01
2019-04-06T07:49:51.893Z,49.38
2019-04-06T07:50:51.854Z,48.98
2019-04-06T07:51:51.840Z,49.16
2019-04-06T07:52:51.828Z,49.38
2019-04-06T07:53:51.804Z,49.76
2019-04-06T07:54:51.901Z,50.12
2019-04-06T07:55:51.802Z,50.32
2019-04-06T07:56:51.776Z,50.19
2019-04-06T07:57:51.766Z,49.99
2019-04-06T07:58:51.764Z,49.81
2019-04-06T07:59:51.745Z,50.42
2019-04-06T08:00:51.725Z,50.09
2019-04-06T08:01:51.798Z,49.48
2019-04-06T08:02:51.754Z,49.96
2019-04-06T08:03:51.712Z,49.64
2019-04-06T08:04:51.686Z,48.30
2019-04-06T08:05:51.680Z,48.10
2019-04-06T08:06:51.673Z,47.60
2019-04-06T08:07:51.937Z,48.41
2019-04-06T08:08:51.637Z,48.79
2019-04-06T08:09:51.628Z,47.78
2019-04-06T08:10:51.618Z,46.75
2019-04-06T08:11:51.619Z,47.25
2019-04-06T08:12:51.768Z,46.99
2019-04-06T08:13:51.580Z,48.00
2019-04-06T08:14:51.590Z,48.43
2019-04-06T08:15:51.585Z,48.43
2019-04-06T08:16:51.550Z,48.91
2019-04-06T08:17:51.554Z,48.61
2019-04-06T08:18:51.527Z,48.08
2019-04-06T08:19:51.518Z,47.98
2019-04-06T08:20:51.716Z,48.02
2019-04-06T08:21:51.495Z,48.73
2019-04-06T08:22:51.478Z,49.66
2019-04-06T08:23:51.486Z,49.87
2019-04-06T08:24:51.457Z,49.56
2019-04-06T08:25:51.469Z,49.36
2019-04-06T08:26:51.433Z,49.69
2019-04-06T08:27:51.428Z,50.01
2019-04-06T08:29:00.284Z,50.39
2019-04-06T08:29:52.405Z,49.69
2019-04-06T08:30:51.396Z,49.96
2019-04-06T08:31:51.378Z,49.76
2019-04-06T08:32:51.368Z,49.76
2019-04-06T08:33:51.363Z,49.58
2019-04-06T08:34:51.406Z,50.37
2019-04-06T08:35:51.427Z,49.96
2019-04-06T08:36:51.337Z,49.04
2019-04-06T08:37:51.477Z,49.66
2019-04-06T08:38:51.311Z,50.24
2019-04-06T08:39:51.464Z,48.41
2019-04-06T08:40:51.288Z,48.50
2019-04-06T08:41:51.275Z,49.04
2019-04-06T08:42:51.263Z,49.31
2019-04-06T08:43:51.508Z,48.89
2019-04-06T08:44:51.244Z,47.15
2019-04-06T08:45:51.235Z,47.90
2019-04-06T08:46:51.232Z,49.05
2019-04-06T08:47:51.256Z,47.72
2019-04-06T08:48:51.226Z,49.66
2019-04-06T08:49:51.189Z,48.83
2019-04-06T08:50:51.415Z,48.25
2019-04-06T08:51:51.197Z,49.44
2019-04-06T08:52:51.180Z,48.10
2019-04-06T08:53:51.137Z,47.60
2019-04-06T08:54:51.127Z,47.78
2019-04-06T08:55:51.144Z,47.45
2019-04-06T08:56:51.105Z,46.95
2019-04-06T08:57:51.214Z,46.62
2019-04-06T08:58:51.207Z,46.20
2019-04-06T08:59:51.342Z,46.40
2019-04-06T09:00:51.096Z,46.02
2019-04-06T09:01:51.073Z,46.85
2019-04-06T09:02:51.050Z,47.33
2019-04-06T09:03:51.042Z,46.73
2019-04-06T09:04:51.028Z,46.75
2019-04-06T09:05:51.212Z,46.20
2019-04-06T09:06:51.006Z,46.48
2019-04-06T09:07:51.001Z,45.25
2019-04-06T09:08:51.110Z,44.71
2019-04-06T09:09:51.002Z,44.16
2019-04-06T09:10:50.953Z,43.16
2019-04-06T09:11:50.949Z,43.46
2019-04-06T09:12:50.939Z,43.48
2019-04-06T09:13:50.941Z,43.40
2019-04-06T09:14:51.042Z,44.12
2019-04-06T09:15:50.905Z,44.73
2019-04-06T09:16:51.105Z,44.20
2019-04-06T09:17:50.894Z,44.31
2019-04-06T09:18:50.875Z,44.91
2019-04-06T09:19:50.866Z,43.92
2019-04-06T09:20:51.038Z,46.36
2019-04-06T09:21:50.888Z,44.71
2019-04-06T09:22:50.867Z,44.75
2019-04-06T09:23:50.815Z,45.05
2019-04-06T09:24:50.804Z,44.75
2019-04-06T09:25:50.805Z,45.45
2019-04-06T09:26:50.783Z,45.37
2019-04-06T09:27:50.780Z,46.08
2019-04-06T09:28:50.778Z,46.18
2019-04-06T09:29:50.904Z,44.87
2019-04-06T09:30:50.746Z,46.56
2019-04-06T09:31:50.739Z,46.03
2019-04-06T09:32:50.717Z,44.06
2019-04-06T09:33:50.946Z,43.68
2019-04-06T09:34:50.763Z,44.20
2019-04-06T09:35:50.690Z,44.23
2019-04-06T09:36:50.771Z,45.17
2019-04-06T09:37:50.873Z,45.90
2019-04-06T09:38:50.829Z,44.89
2019-04-06T09:39:50.664Z,46.38
2019-04-06T09:40:50.946Z,46.23
2019-04-06T09:41:50.625Z,44.00
2019-04-06T09:42:50.605Z,44.32
2019-04-06T09:43:50.625Z,44.23
2019-04-06T09:44:50.582Z,44.53
2019-04-06T09:45:50.576Z,45.27
2019-04-06T09:46:50.663Z,45.03
2019-04-06T09:47:50.687Z,44.32
2019-04-06T09:48:50.568Z,45.00
2019-04-06T09:49:50.530Z,46.28
2019-04-06T09:50:50.715Z,44.73
2019-04-06T09:51:50.504Z,44.65
2019-04-06T09:52:50.493Z,45.05
2019-04-06T09:53:50.513Z,44.31
2019-04-06T09:54:50.694Z,43.82
2019-04-06T09:55:50.552Z,44.63
2019-04-06T09:56:50.496Z,44.51
2019-04-06T09:57:50.444Z,44.18
2019-04-06T09:58:50.432Z,43.98
2019-04-06T09:59:50.719Z,43.76
2019-04-06T10:00:50.428Z,43.88
2019-04-06T10:01:50.590Z,43.78
2019-04-06T10:02:50.400Z,43.16
2019-04-06T10:03:50.379Z,43.76
2019-04-06T10:04:50.398Z,43.86
2019-04-06T10:05:50.372Z,43.66
2019-04-06T10:06:50.345Z,43.76
2019-04-06T10:07:50.374Z,42.61
2019-04-06T10:08:50.335Z,42.61
2019-04-06T10:09:50.508Z,43.44
2019-04-06T10:10:50.587Z,43.34
2019-04-06T10:11:50.313Z,42.63
2019-04-06T10:12:50.303Z,43.84
2019-04-06T10:13:50.289Z,42.66
2019-04-06T10:14:50.266Z,43.58
2019-04-06T10:15:50.444Z,42.96
2019-04-06T10:16:50.445Z,43.96
2019-04-06T10:17:50.267Z,42.94
2019-04-06T10:18:50.223Z,43.26
2019-04-06T10:19:50.209Z,42.74
2019-04-06T10:20:50.220Z,42.54
2019-04-06T10:21:50.193Z,42.86
2019-04-06T10:22:50.202Z,43.36
2019-04-06T10:23:50.173Z,42.54
2019-04-06T10:24:50.152Z,41.53
2019-04-06T10:25:50.136Z,40.93
2019-04-06T10:26:50.219Z,41.13
2019-04-06T10:27:50.119Z,40.83
2019-04-06T10:28:50.130Z,41.74
2019-04-06T10:29:50.459Z,41.33
2019-04-06T10:30:50.086Z,41.74
2019-04-06T10:31:50.084Z,40.83
2019-04-06T10:32:50.059Z,41.11
2019-04-06T10:33:50.057Z,40.21
2019-04-06T10:34:50.041Z,41.31
2019-04-06T10:35:50.311Z,40.99
2019-04-06T10:36:50.053Z,40.41
2019-04-06T10:37:50.016Z,40.81
2019-04-06T10:38:49.989Z,42.03
2019-04-06T10:39:50.241Z,41.13
2019-04-06T10:40:49.969Z,41.63
2019-04-06T10:41:49.979Z,40.83
2019-04-06T10:42:49.950Z,41.45
2019-04-06T10:43:50.047Z,41.33
2019-04-06T10:44:50.100Z,41.11
2019-04-06T10:45:49.942Z,40.89
2019-04-06T10:46:49.942Z,40.19
2019-04-06T10:47:49.893Z,40.39
2019-04-06T10:48:49.890Z,40.43
2019-04-06T10:49:49.890Z,41.96
2019-04-06T10:50:49.857Z,41.15
2019-04-06T10:51:49.920Z,41.25
2019-04-06T10:52:50.161Z,41.45
2019-04-06T10:53:49.831Z,41.55
2019-04-06T10:54:49.857Z,42.74
2019-04-06T10:55:49.858Z,41.13
2019-04-06T10:56:49.813Z,42.02
2019-04-06T10:57:50.621Z,41.49
2019-04-06T10:58:49.807Z,41.51
2019-04-06T10:59:59.930Z,41.11
2019-04-06T11:00:50.755Z,40.73
2019-04-06T11:01:49.738Z,41.63
2019-04-06T11:02:49.736Z,41.33
2019-04-06T11:03:50.115Z,42.21
2019-04-06T11:04:49.708Z,41.41
2019-04-06T11:05:49.979Z,41.09
2019-04-06T11:06:49.866Z,41.17
2019-04-06T11:07:49.676Z,40.37
2019-04-06T11:08:49.764Z,40.99
2019-04-06T11:09:49.659Z,42.21
2019-04-06T11:10:49.677Z,42.52
2019-04-06T11:11:49.633Z,40.77
2019-04-06T11:12:49.622Z,40.67
2019-04-06T11:13:49.631Z,40.19
2019-04-06T11:14:49.618Z,40.69
2019-04-06T11:15:49.731Z,40.97
2019-04-06T11:16:49.578Z,40.25
2019-04-06T11:17:49.567Z,40.23
2019-04-06T11:18:49.561Z,40.23
2019-04-06T11:19:49.581Z,40.52
2019-04-06T11:20:49.536Z,39.51
2019-04-06T11:21:49.531Z,39.83
2019-04-06T11:22:49.515Z,40.11
2019-04-06T11:23:49.631Z,40.30
2019-04-06T11:24:49.529Z,39.79
2019-04-06T11:25:49.492Z,39.20
2019-04-06T11:26:49.472Z,38.91
2019-04-06T11:27:49.493Z,39.95
2019-04-06T11:28:49.634Z,41.17
2019-04-06T11:29:49.446Z,40.77
2019-04-06T11:30:49.442Z,40.65
2019-04-06T11:31:49.591Z,40.43
2019-04-06T11:32:49.433Z,40.03
2019-04-06T11:33:49.392Z,39.01
2019-04-06T11:34:49.385Z,38.71
2019-04-06T11:35:49.621Z,40.01
2019-04-06T11:36:49.359Z,39.03
2019-04-06T11:37:49.355Z,39.03
2019-04-06T11:38:49.370Z,38.63
2019-04-06T11:39:49.330Z,38.73
2019-04-06T11:40:49.555Z,39.03
2019-04-06T11:41:49.313Z,39.72
2019-04-06T11:42:49.311Z,38.98
2019-04-06T11:43:49.331Z,38.79
2019-04-06T11:44:49.290Z,39.00
2019-04-06T11:45:49.621Z,38.20
2019-04-06T11:46:49.267Z,38.29
2019-04-06T11:47:49.259Z,38.40
2019-04-06T11:48:49.567Z,38.09
2019-04-06T11:49:49.268Z,38.91
2019-04-06T11:50:49.377Z,38.91
2019-04-06T11:51:49.211Z,38.38
2019-04-06T11:52:49.194Z,38.38
2019-04-06T11:53:49.193Z,37.86
2019-04-06T11:54:49.186Z,38.57
2019-04-06T11:55:49.394Z,36.86
2019-04-06T11:56:49.146Z,37.68
2019-04-06T11:57:49.141Z,37.98
2019-04-06T11:58:49.127Z,37.16
2019-04-06T11:59:49.129Z,36.64
2019-04-06T12:00:49.441Z,36.74
2019-04-06T12:01:49.246Z,36.74
2019-04-06T12:02:49.434Z,37.18
2019-04-06T12:03:49.078Z,38.36
2019-04-06T12:04:49.069Z,38.24
2019-04-06T12:05:49.109Z,36.26
2019-04-06T12:06:49.276Z,37.79
2019-04-06T12:07:49.036Z,36.69
2019-04-06T12:08:49.389Z,36.90
2019-04-06T12:09:49.098Z,37.40
2019-04-06T12:10:49.073Z,37.40
2019-04-06T12:11:48.993Z,37.92
2019-04-06T12:12:49.244Z,38.21
2019-04-06T12:13:48.967Z,37.19
2019-04-06T12:14:48.957Z,36.58
2019-04-06T12:15:49.004Z,37.36
2019-04-06T12:16:48.966Z,36.84
2019-04-06T12:17:48.935Z,36.43
2019-04-06T12:18:48.917Z,35.72
2019-04-06T12:19:48.903Z,36.28
2019-04-06T12:20:48.899Z,36.88
2019-04-06T12:21:48.917Z,36.86
2019-04-06T12:22:51.068Z,37.02
2019-04-06T12:23:48.875Z,34.93
2019-04-06T12:24:49.107Z,35.64
2019-04-06T12:25:48.849Z,34.26
2019-04-06T12:26:48.824Z,35.66
2019-04-06T12:27:48.867Z,35.88
2019-04-06T12:28:48.806Z,35.99
2019-04-06T12:29:48.798Z,35.88
2019-04-06T12:30:48.783Z,35.36
2019-04-06T12:31:49.073Z,36.56
2019-04-06T12:32:49.102Z,36.34
2019-04-06T12:33:48.889Z,35.24
2019-04-06T12:34:48.747Z,35.64
2019-04-06T12:35:48.831Z,35.74
2019-04-06T12:36:49.088Z,35.63
2019-04-06T12:37:48.711Z,34.31
2019-04-06T12:38:48.700Z,34.01
2019-04-06T12:39:53.118Z,34.03
2019-04-06T12:40:49.688Z,34.44
2019-04-06T12:41:48.690Z,35.78
2019-04-06T12:42:48.660Z,35.86
2019-04-06T12:43:48.756Z,35.74
2019-04-06T12:44:48.664Z,33.63
2019-04-06T12:45:48.622Z,34.31
2019-04-06T12:46:48.647Z,33.72
2019-04-06T12:47:48.645Z,34.44
2019-04-06T12:48:48.590Z,35.44
2019-04-06T12:49:48.583Z,35.85
2019-04-06T12:50:48.574Z,34.73
2019-04-06T12:51:48.563Z,34.73
2019-04-06T12:52:48.543Z,34.63